Time;durP1;ratioP1;P1;durP2;ratioP2;P2;SDS_P1;SDS_P2;PMS_P1;PMS_P2;Temp;Humidity;BMP_temperature;BMP_pressure;BME280_temperature;BME280_humidity;BME280_pressure;Samples;Min_cycle;Max_cycle;Signal;HPM_P1;HPM_P2
2023/10/31 00:01:20;;;;;;;5.03;3.63;;;;;;;9.69;100.00;99432.19;5023824;28;20578;-72
2023/10/31 00:03:48;;;;;;;3.13;2.83;;;;;;;9.66;100.00;99433.22;5016261;28;20051;-72
2023/10/31 00:06:15;;;;;;;3.83;3.10;;;;;;;9.60;100.00;99431.72;5025352;28;20044;-69
2023/10/31 00:08:42;;;;;;;3.80;3.05;;;;;;;9.57;100.00;99442.41;5012276;28;20048;-72
2023/10/31 00:11:09;;;;;;;3.47;2.75;;;;;;;9.53;100.00;99450.50;5005731;28;20053;-70
2023/10/31 00:13:36;;;;;;;5.15;3.67;;;;;;;9.47;100.00;99459.53;5014095;28;20045;-70
2023/10/31 00:16:03;;;;;;;5.65;3.92;;;;;;;9.44;100.00;99457.06;5030353;28;20235;-71
2023/10/31 00:18:30;;;;;;;5.10;4.32;;;;;;;9.43;100.00;99457.97;5013809;28;20041;-71
2023/10/31 00:20:57;;;;;;;6.95;4.10;;;;;;;9.40;100.00;99473.94;5019772;28;20044;-71
2023/10/31 00:23:24;;;;;;;5.53;4.50;;;;;;;9.38;100.00;99495.03;5045860;28;20084;-71
2023/10/31 00:25:51;;;;;;;5.50;4.20;;;;;;;9.39;100.00;99511.66;5026087;28;20383;-71
2023/10/31 00:28:19;;;;;;;7.40;4.05;;;;;;;9.36;100.00;99512.66;5015783;28;20053;-71
2023/10/31 00:30:46;;;;;;;6.00;3.80;;;;;;;9.36;100.00;99507.38;5023065;28;20076;-71
2023/10/31 00:33:13;;;;;;;5.60;3.20;;;;;;;9.35;100.00;99504.84;5030775;28;20453;-71
2023/10/31 00:35:40;;;;;;;5.55;2.90;;;;;;;9.33;100.00;99515.44;5043814;28;20041;-71
2023/10/31 00:38:08;;;;;;;6.10;3.33;;;;;;;9.33;100.00;99512.81;5029924;28;20060;-71
2023/10/31 00:40:35;;;;;;;7.13;4.32;;;;;;;9.33;100.00;99520.69;5029090;28;20295;-71
2023/10/31 00:43:02;;;;;;;8.05;4.50;;;;;;;9.33;100.00;99524.16;5026406;28;20076;-71
2023/10/31 00:45:29;;;;;;;8.13;6.03;;;;;;;9.36;100.00;99532.84;5027773;28;20049;-72
2023/10/31 00:47:57;;;;;;;9.40;7.07;;;;;;;9.37;100.00;99529.28;5027782;28;20045;-71
2023/10/31 00:50:24;;;;;;;9.07;7.15;;;;;;;9.37;100.00;99539.81;5026374;28;20564;-71
2023/10/31 00:52:51;;;;;;;12.18;8.57;;;;;;;9.36;100.00;99543.38;5017778;28;20042;-71
2023/10/31 00:55:18;;;;;;;12.98;9.00;;;;;;;9.37;100.00;99540.66;5009291;28;20057;-71
2023/10/31 00:57:45;;;;;;;10.20;8.77;;;;;;;9.40;100.00;99547.56;5010351;28;20052;-71
2023/10/31 01:00:13;;;;;;;9.32;8.27;;;;;;;9.40;100.00;99548.41;5016392;28;20049;-71
2023/10/31 01:02:40;;;;;;;11.23;8.20;;;;;;;9.38;100.00;99547.63;5010113;28;20046;-71
2023/10/31 01:05:07;;;;;;;12.55;8.95;;;;;;;9.39;100.00;99553.75;5016452;28;20115;-70
2023/10/31 01:07:35;;;;;;;12.55;9.13;;;;;;;9.38;100.00;99555.50;5021838;28;20046;-71
2023/10/31 01:10:03;;;;;;;12.90;10.27;;;;;;;9.38;100.00;99549.41;5012259;28;20131;-70
2023/10/31 01:12:30;;;;;;;15.30;10.68;;;;;;;9.36;100.00;99559.16;5037061;28;20045;-71
2023/10/31 01:14:58;;;;;;;18.70;12.73;;;;;;;9.35;100.00;99560.06;5029547;28;20045;-71
2023/10/31 01:17:25;;;;;;;16.75;14.07;;;;;;;9.38;100.00;99558.16;5008114;28;20050;-71
2023/10/31 01:19:52;;;;;;;19.38;14.07;;;;;;;9.43;100.00;99557.94;5012012;28;20204;-71
2023/10/31 01:22:20;;;;;;;20.38;15.88;;;;;;;9.50;100.00;99561.13;5018411;28;20223;-70
2023/10/31 01:24:47;;;;;;;20.27;15.38;;;;;;;9.54;100.00;99560.09;5024526;28;20049;-71
2023/10/31 01:27:14;;;;;;;20.70;16.08;;;;;;;9.58;100.00;99573.03;5023977;28;20088;-71
2023/10/31 01:29:41;;;;;;;22.48;15.95;;;;;;;9.62;100.00;99573.72;5034409;28;20566;-72
2023/10/31 01:32:08;;;;;;;26.10;18.38;;;;;;;9.67;100.00;99573.50;5034596;28;20168;-71
2023/10/31 01:34:48;;;;;;;25.17;19.15;;;;;;;9.70;100.00;99582.13;5009294;28;20757;-71
2023/10/31 01:37:15;;;;;;;26.83;20.02;;;;;;;9.74;100.00;99585.44;5012321;28;20053;-71
2023/10/31 01:39:42;;;;;;;24.90;19.80;;;;;;;9.75;100.00;99582.78;5011499;28;20310;-72
2023/10/31 01:42:09;;;;;;;27.23;20.17;;;;;;;9.79;100.00;99586.09;5021366;28;20457;-71
2023/10/31 01:44:36;;;;;;;22.42;18.73;;;;;;;9.80;100.00;99593.09;5023970;28;20040;-71
2023/10/31 01:47:04;;;;;;;21.67;17.20;;;;;;;9.83;100.00;99598.19;5028158;28;20509;-71
2023/10/31 01:49:32;;;;;;;21.98;16.83;;;;;;;9.85;100.00;99598.97;5027628;28;20535;-72
2023/10/31 01:52:02;;;;;;;19.70;15.77;;;;;;;9.86;100.00;99605.09;5025132;28;20044;-72
2023/10/31 01:54:30;;;;;;;17.65;12.85;;;;;;;9.87;100.00;99615.56;5020959;28;20574;-71
2023/10/31 01:56:58;;;;;;;13.77;11.43;;;;;;;9.88;100.00;99613.75;5027774;28;20136;-71
2023/10/31 01:59:27;;;;;;;13.75;11.23;;;;;;;9.90;100.00;99617.19;5025452;28;20520;-72
2023/10/31 02:01:57;;;;;;;16.15;10.43;;;;;;;9.88;100.00;99619.88;5021729;28;20121;-71
2023/10/31 02:04:24;;;;;;;14.63;11.05;;;;;;;9.89;100.00;99611.06;5020468;28;20128;-72
2023/10/31 02:06:51;;;;;;;13.63;9.82;;;;;;;9.91;100.00;99618.88;5007648;28;20083;-72
2023/10/31 02:09:23;;;;;;;15.10;10.25;;;;;;;9.89;100.00;99608.44;5006041;28;20493;-72
2023/10/31 02:11:50;;;;;;;17.13;11.02;;;;;;;9.88;100.00;99609.38;5007211;28;20125;-72
2023/10/31 02:14:18;;;;;;;18.50;12.07;;;;;;;9.91;100.00;99605.72;5042257;28;20420;-72
2023/10/31 02:16:45;;;;;;;17.63;12.68;;;;;;;9.88;100.00;99608.50;5010525;28;20092;-72
2023/10/31 02:19:19;;;;;;;20.55;12.70;;;;;;;9.89;100.00;99610.19;5013364;28;20145;-72
2023/10/31 02:21:46;;;;;;;22.17;14.95;;;;;;;9.88;100.00;99603.22;5017904;28;20172;-72
2023/10/31 02:24:13;;;;;;;23.92;15.68;;;;;;;9.90;100.00;99606.66;5020499;28;20050;-71
2023/10/31 02:26:40;;;;;;;22.80;15.15;;;;;;;9.89;100.00;99605.81;5007082;28;20077;-71
2023/10/31 02:29:07;;;;;;;25.75;15.77;;;;;;;9.90;100.00;99609.28;5008687;28;20049;-70
2023/10/31 02:31:34;;;;;;;22.85;15.43;;;;;;;9.88;100.00;99603.22;5030006;28;20057;-71
2023/10/31 02:34:02;;;;;;;26.02;15.98;;;;;;;9.89;100.00;99607.56;5040133;28;20052;-71
2023/10/31 02:36:30;;;;;;;24.52;16.80;;;;;;;9.87;100.00;99598.91;5024543;28;20041;-71
2023/10/31 02:38:58;;;;;;;27.52;17.17;;;;;;;9.88;100.00;99608.50;5017496;28;20045;-71
2023/10/31 02:41:25;;;;;;;27.40;17.27;;;;;;;9.90;100.00;99607.50;5006756;28;20052;-71
2023/10/31 02:43:54;;;;;;;31.95;19.05;;;;;;;9.90;100.00;99604.88;5010540;28;20131;-70
2023/10/31 02:46:22;;;;;;;28.33;17.50;;;;;;;9.91;100.00;99605.72;5007505;28;20052;-71
2023/10/31 02:48:49;;;;;;;30.17;17.65;;;;;;;9.94;100.00;99605.59;5031097;28;20045;-71
2023/10/31 02:51:17;;;;;;;32.05;18.95;;;;;;;9.94;100.00;99605.59;5044877;28;20041;-71
2023/10/31 02:53:44;;;;;;;32.95;20.17;;;;;;;9.94;100.00;99608.22;5045142;28;20077;-71
2023/10/31 02:56:11;;;;;;;40.70;20.90;;;;;;;9.96;100.00;99611.63;5040369;28;20145;-72
2023/10/31 02:58:38;;;;;;;30.27;19.13;;;;;;;9.97;100.00;99620.38;5031883;28;20558;-71
2023/10/31 03:01:05;;;;;;;32.47;20.13;;;;;;;9.99;100.00;99614.09;5014550;28;20103;-71
2023/10/31 03:03:32;;;;;;;33.72;21.63;;;;;;;9.99;100.00;99613.25;5049785;28;20637;-71
2023/10/31 03:05:59;;;;;;;31.27;21.08;;;;;;;10.00;100.00;99612.34;5036560;28;20045;-71
2023/10/31 03:08:27;;;;;;;32.92;21.33;;;;;;;10.01;100.00;99616.69;5011629;28;20065;-71
2023/10/31 03:10:55;;;;;;;32.63;21.83;;;;;;;10.02;100.00;99615.75;5006017;28;20050;-71
2023/10/31 03:13:23;;;;;;;34.10;21.20;;;;;;;10.03;100.00;99617.44;5020536;28;20160;-72
2023/10/31 03:15:50;;;;;;;34.65;22.17;;;;;;;10.04;100.00;99619.16;5022723;28;20041;-71
2023/10/31 03:18:17;;;;;;;36.85;22.65;;;;;;;10.04;100.00;99613.88;5023088;28;20041;-71
2023/10/31 03:20:46;;;;;;;41.35;25.10;;;;;;;10.06;100.00;99617.31;5024134;28;20037;-71
2023/10/31 03:23:13;;;;;;;34.75;23.33;;;;;;;10.07;100.00;99627.75;5013590;28;20050;-71
2023/10/31 03:25:41;;;;;;;36.67;24.23;;;;;;;10.08;100.00;99626.84;5005537;28;20176;-71
2023/10/31 03:28:19;;;;;;;38.08;24.20;;;;;;;10.10;100.00;99632.03;5025405;28;20041;-71
2023/10/31 03:30:47;;;;;;;38.47;25.38;;;;;;;10.09;100.00;99641.72;5010764;28;20053;-70
2023/10/31 03:33:16;;;;;;;37.42;25.65;;;;;;;10.12;100.00;99640.72;5037493;28;20038;-71
2023/10/31 03:35:44;;;;;;;41.65;26.25;;;;;;;10.10;100.00;99632.03;5005931;28;20042;-70
2023/10/31 03:38:13;;;;;;;37.70;25.42;;;;;;;10.12;100.00;99642.50;5008289;28;20076;-71
2023/10/31 03:40:41;;;;;;;40.05;26.52;;;;;;;10.12;100.00;99643.38;5012574;28;20058;-71
2023/10/31 03:43:11;;;;;;;39.92;26.80;;;;;;;10.12;100.00;99650.41;5005127;28;20564;-71
2023/10/31 03:45:38;;;;;;;39.65;26.50;;;;;;;10.13;100.00;99654.75;5006599;28;20049;-71
2023/10/31 03:48:07;;;;;;;42.13;27.13;;;;;;;10.12;100.00;99651.25;5028383;28;20146;-72
2023/10/31 03:50:34;;;;;;;40.80;27.05;;;;;;;10.12;100.00;99653.03;5024360;28;20535;-71
2023/10/31 03:53:01;;;;;;;40.05;26.70;;;;;;;10.11;100.00;99657.47;5020863;28;20378;-71
2023/10/31 03:55:30;;;;;;;45.63;27.48;;;;;;;10.10;100.00;99664.47;5016618;28;20508;-71
2023/10/31 03:57:57;;;;;;;41.33;27.75;;;;;;;10.07;100.00;99661.97;5007161;28;20042;-72
2023/10/31 04:00:24;;;;;;;39.78;26.00;;;;;;;10.06;100.00;99662.06;5024924;28;20052;-72
2023/10/31 04:02:51;;;;;;;37.28;24.17;;;;;;;10.04;100.00;99672.69;5007769;28;20038;-72
2023/10/31 04:05:18;;;;;;;41.30;27.70;;;;;;;10.02;100.00;99677.16;5036277;28;20092;-72
2023/10/31 04:07:47;;;;;;;37.55;25.40;;;;;;;10.02;100.00;99676.31;5026237;28;20053;-72
2023/10/31 04:10:14;;;;;;;37.90;24.88;;;;;;;10.01;100.00;99679.88;5014115;28;20057;-72
2023/10/31 04:12:42;;;;;;;40.72;25.50;;;;;;;10.01;100.00;99675.44;5012692;28;20124;-72
2023/10/31 04:15:09;;;;;;;43.17;28.48;;;;;;;10.02;100.00;99690.31;5022770;28;20077;-72
2023/10/31 04:17:37;;;;;;;46.72;27.73;;;;;;;10.04;100.00;99684.97;5024546;28;20049;-71
2023/10/31 04:20:05;;;;;;;45.53;27.25;;;;;;;10.05;100.00;99689.31;5016971;28;20445;-71
2023/10/31 04:22:32;;;;;;;42.85;27.48;;;;;;;10.05;100.00;99695.47;5023919;28;20033;-71
2023/10/31 04:24:59;;;;;;;42.67;27.27;;;;;;;10.09;100.00;99697.00;5020913;28;20133;-72
2023/10/31 04:27:26;;;;;;;40.45;27.27;;;;;;;10.12;100.00;99696.03;5006655;28;20484;-71
2023/10/31 04:29:53;;;;;;;37.70;24.20;;;;;;;10.11;100.00;99702.22;5023379;28;20060;-72
2023/10/31 04:32:20;;;;;;;41.50;25.65;;;;;;;10.11;100.00;99699.59;5040888;28;20045;-72
2023/10/31 04:34:47;;;;;;;35.30;24.40;;;;;;;10.10;100.00;99709.25;5006383;28;20076;-72
2023/10/31 04:37:14;;;;;;;35.53;24.63;;;;;;;10.10;100.00;99719.78;5004419;28;20042;-72
2023/10/31 04:39:42;;;;;;;35.10;24.45;;;;;;;10.09;100.00;99711.97;5016271;28;20046;-72
2023/10/31 04:42:09;;;;;;;35.67;23.65;;;;;;;10.10;100.00;99718.94;5033807;28;20055;-71
2023/10/31 04:44:36;;;;;;;35.28;24.15;;;;;;;10.07;100.00;99713.81;5032335;28;20075;-72
2023/10/31 04:47:03;;;;;;;33.85;24.38;;;;;;;10.05;100.00;99727.06;5023070;28;20169;-72
2023/10/31 04:49:31;;;;;;;39.22;25.20;;;;;;;10.07;100.00;99733.09;5024489;28;20180;-72
2023/10/31 04:51:58;;;;;;;38.53;26.40;;;;;;;10.04;100.00;99735.88;5025082;28;20072;-72
2023/10/31 04:54:25;;;;;;;38.80;27.17;;;;;;;10.04;100.00;99741.16;5026051;28;20037;-72
2023/10/31 04:56:52;;;;;;;36.33;25.63;;;;;;;10.03;100.00;99743.84;5005543;28;20101;-73
2023/10/31 04:59:19;;;;;;;40.10;27.50;;;;;;;10.03;100.00;99754.34;5033402;28;20084;-71
2023/10/31 05:01:50;;;;;;;41.30;27.85;;;;;;;10.00;100.00;99751.88;5009560;28;20061;-71
2023/10/31 05:04:18;;;;;;;41.42;28.90;;;;;;;9.98;100.00;99746.66;5016684;28;20521;-71
2023/10/31 05:06:45;;;;;;;44.22;29.83;;;;;;;9.98;100.00;99748.47;5014846;28;20038;-71
2023/10/31 05:09:14;;;;;;;41.58;29.05;;;;;;;9.97;100.00;99757.28;5009563;28;20060;-71
2023/10/31 05:11:41;;;;;;;43.33;27.50;;;;;;;9.95;100.00;99763.47;5014125;28;20050;-71
2023/10/31 05:14:12;;;;;;;44.00;30.05;;;;;;;9.94;100.00;99759.13;5019866;28;20142;-71
2023/10/31 05:16:43;;;;;;;41.42;28.67;;;;;;;9.97;100.00;99766.03;5017214;28;20421;-71
2023/10/31 05:19:11;;;;;;;40.00;27.02;;;;;;;9.99;100.00;99768.59;5010351;28;20161;-72
2023/10/31 05:21:38;;;;;;;44.83;30.38;;;;;;;10.01;100.00;99775.50;5007499;28;20046;-71
2023/10/31 05:24:06;;;;;;;38.03;27.38;;;;;;;10.02;100.00;99771.13;5014655;28;20149;-72
2023/10/31 05:26:33;;;;;;;45.42;30.92;;;;;;;10.02;100.00;99774.59;5024924;28;20073;-73
2023/10/31 05:29:00;;;;;;;42.33;27.80;;;;;;;10.02;100.00;99771.94;5027597;28;20049;-73
2023/10/31 05:31:27;;;;;;;43.40;31.60;;;;;;;10.04;100.00;99772.75;5025186;28;20392;-72
2023/10/31 05:33:54;;;;;;;43.92;29.42;;;;;;;10.08;100.00;99773.47;5024403;28;20504;-72
2023/10/31 05:36:24;;;;;;;46.13;31.08;;;;;;;10.08;100.00;99778.72;5010784;28;20042;-70
2023/10/31 05:38:51;;;;;;;45.13;31.27;;;;;;;10.09;100.00;99781.28;5025009;28;20406;-71
2023/10/31 05:41:18;;;;;;;42.67;28.65;;;;;;;10.11;100.00;99786.50;5024832;28;20049;-72
2023/10/31 05:43:45;;;;;;;44.85;30.60;;;;;;;10.09;100.00;99783.91;5022318;28;20033;-70
2023/10/31 05:46:14;;;;;;;43.15;30.77;;;;;;;10.09;100.00;99793.59;5018683;28;20042;-71
2023/10/31 05:48:45;;;;;;;46.92;31.38;;;;;;;10.12;100.00;99789.97;5015495;28;20061;-69
2023/10/31 05:51:14;;;;;;;48.85;32.25;;;;;;;10.15;100.00;99792.47;5023660;28;20045;-70
2023/10/31 05:53:44;;;;;;;43.95;29.55;;;;;;;10.16;100.00;99791.56;5026553;28;20505;-69
2023/10/31 05:56:13;;;;;;;34.67;23.65;;;;;;;10.18;100.00;99798.44;5034600;28;20079;-69
2023/10/31 05:58:42;;;;;;;43.42;30.10;;;;;;;10.26;100.00;99803.38;5025620;28;20088;-69
2023/10/31 06:01:09;;;;;;;35.10;25.58;;;;;;;10.29;100.00;99812.91;5008151;28;20053;-69
2023/10/31 06:03:37;;;;;;;39.42;27.85;;;;;;;10.35;100.00;99812.63;5036017;28;20095;-69
2023/10/31 06:06:05;;;;;;;41.03;27.55;;;;;;;10.43;100.00;99815.78;5021666;28;20048;-69
2023/10/31 06:08:33;;;;;;;37.75;25.88;;;;;;;10.47;100.00;99827.91;5021737;28;20068;-69
2023/10/31 06:11:00;;;;;;;36.65;27.42;;;;;;;10.46;100.00;99826.19;5018729;28;20124;-69
2023/10/31 06:13:28;;;;;;;36.42;24.98;;;;;;;10.43;100.00;99831.59;5025193;28;20434;-69
2023/10/31 06:15:55;;;;;;;32.40;24.65;;;;;;;10.39;100.00;99838.78;5021522;28;20060;-69
2023/10/31 06:18:28;;;;;;;33.65;23.67;;;;;;;10.38;100.00;99844.13;5021370;28;20045;-69
2023/10/31 06:20:56;;;;;;;33.03;23.20;;;;;;;10.32;100.00;99844.41;5024754;28;20132;-72
2023/10/31 06:23:23;;;;;;;34.53;23.50;;;;;;;10.25;100.00;99847.28;5024510;28;20111;-72
2023/10/31 06:25:50;;;;;;;29.73;22.65;;;;;;;10.20;100.00;99840.50;5023617;28;20041;-72
2023/10/31 06:28:18;;;;;;;31.13;21.20;;;;;;;10.18;100.00;99855.53;5017434;28;20528;-72
2023/10/31 06:30:45;;;;;;;30.02;22.27;;;;;;;10.13;100.00;99858.38;5022671;28;20041;-70
2023/10/31 06:33:12;;;;;;;28.27;20.48;;;;;;;10.10;100.00;99861.16;5018341;28;20034;-70
2023/10/31 06:35:40;;;;;;;31.60;22.08;;;;;;;10.08;100.00;99863.84;5018336;28;20041;-71
2023/10/31 06:38:07;;;;;;;29.20;21.60;;;;;;;10.05;100.00;99863.13;5011648;28;20124;-73
2023/10/31 06:40:34;;;;;;;29.20;20.02;;;;;;;10.06;100.00;99872.72;5022813;28;20045;-75
2023/10/31 06:43:02;;;;;;;28.73;20.90;;;;;;;10.03;100.00;99868.47;5013771;28;20037;-72
2023/10/31 06:45:29;;;;;;;26.52;20.70;;;;;;;10.02;100.00;99864.13;5018695;28;20136;-72
2023/10/31 06:47:56;;;;;;;28.20;21.13;;;;;;;10.04;100.00;99872.81;5015856;28;20049;-72
2023/10/31 06:50:24;;;;;;;28.40;21.27;;;;;;;10.07;100.00;99877.06;5027711;28;20049;-72
2023/10/31 06:52:51;;;;;;;28.38;20.67;;;;;;;10.07;100.00;99880.56;5022566;28;20042;-72
2023/10/31 06:55:18;;;;;;;28.15;22.42;;;;;;;10.08;100.00;99877.00;5018666;28;20721;-72
2023/10/31 06:57:46;;;;;;;27.38;21.23;;;;;;;10.09;100.00;99880.50;5041193;28;20045;-72
2023/10/31 07:00:13;;;;;;;30.05;21.63;;;;;;;10.10;100.00;99885.69;5022052;28;20128;-72
2023/10/31 07:02:41;;;;;;;30.13;22.92;;;;;;;10.12;100.00;99895.31;5040782;28;20064;-72
2023/10/31 07:05:08;;;;;;;28.25;21.55;;;;;;;10.13;100.00;99889.97;5033377;28;20048;-72
2023/10/31 07:07:36;;;;;;;28.73;22.05;;;;;;;10.15;100.00;99892.56;5021643;28;20041;-72
2023/10/31 07:10:04;;;;;;;28.40;22.85;;;;;;;10.17;100.00;99894.19;5038438;28;20045;-71
2023/10/31 07:12:31;;;;;;;28.60;24.20;;;;;;;10.19;100.00;99897.63;4995923;28;20470;-72
2023/10/31 07:14:58;;;;;;;28.98;23.38;;;;;;;10.22;100.00;99902.75;5020891;28;20045;-72
2023/10/31 07:17:26;;;;;;;28.88;23.15;;;;;;;10.25;100.00;99899.97;5021350;28;20494;-72
2023/10/31 07:19:53;;;;;;;29.42;23.02;;;;;;;10.25;100.00;99899.13;5019809;28;20054;-72
2023/10/31 07:22:22;;;;;;;26.65;21.77;;;;;;;10.23;100.00;99893.91;5022654;28;20053;-72
2023/10/31 07:24:51;;;;;;;27.13;21.23;;;;;;;10.22;100.00;99892.22;5042760;28;20034;-72
2023/10/31 07:27:18;;;;;;;27.25;21.02;;;;;;;10.21;100.00;99894.91;5005617;28;20540;-72
2023/10/31 07:29:46;;;;;;;21.73;18.92;;;;;;;10.26;100.00;99890.31;5022044;28;20046;-72
2023/10/31 07:32:13;;;;;;;22.08;18.50;;;;;;;10.33;100.00;99896.13;5018214;28;20068;-72
2023/10/31 07:34:42;;;;;;;21.88;18.15;;;;;;;10.36;100.00;99896.88;5010104;28;20038;-72
2023/10/31 07:37:09;;;;;;;24.88;17.95;;;;;;;10.39;100.00;99894.13;5021679;28;20714;-72
2023/10/31 07:39:36;;;;;;;22.50;18.95;;;;;;;10.43;100.00;99892.19;5024723;28;20060;-72
2023/10/31 07:42:04;;;;;;;21.75;18.08;;;;;;;10.43;100.00;99896.63;5021428;28;20046;-72
2023/10/31 07:44:31;;;;;;;22.17;19.15;;;;;;;10.41;100.00;99908.09;5020989;28;20642;-70
2023/10/31 07:46:58;;;;;;;22.85;18.88;;;;;;;10.38;100.00;99908.22;5022568;28;20144;-71
2023/10/31 07:49:25;;;;;;;20.67;17.40;;;;;;;10.38;100.00;99907.38;5015043;28;20053;-71
2023/10/31 07:51:52;;;;;;;21.23;17.80;;;;;;;10.43;100.00;99912.44;5021850;28;20065;-71
2023/10/31 07:54:19;;;;;;;23.10;19.05;;;;;;;10.50;100.00;99917.38;5021311;28;20037;-71
2023/10/31 07:56:46;;;;;;;21.63;19.30;;;;;;;10.48;100.00;99902.56;5023162;28;20050;-71
2023/10/31 07:59:13;;;;;;;23.67;19.55;;;;;;;10.44;100.00;99908.88;5025095;28;20057;-70
2023/10/31 08:01:40;;;;;;;22.10;19.48;;;;;;;10.45;100.00;99910.59;5024525;28;20063;-70
2023/10/31 08:04:07;;;;;;;24.02;20.48;;;;;;;10.48;100.00;99910.47;5024859;28;20038;-70
2023/10/31 08:06:35;;;;;;;23.73;20.00;;;;;;;10.49;100.00;99928.84;5033222;28;20037;-71
2023/10/31 08:09:02;;;;;;;24.67;20.13;;;;;;;10.53;100.00;99927.75;5015642;28;20060;-71
2023/10/31 08:11:32;;;;;;;23.33;20.13;;;;;;;10.59;100.00;99924.00;5004604;28;20038;-71
2023/10/31 08:13:59;;;;;;;21.65;18.00;;;;;;;10.64;100.00;99922.00;5024306;28;20041;-72
2023/10/31 08:16:27;;;;;;;22.23;19.83;;;;;;;10.71;100.00;99927.88;5024182;28;20164;-72
2023/10/31 08:18:54;;;;;;;21.35;18.63;;;;;;;10.75;100.00;99934.69;5017700;28;20129;-70
2023/10/31 08:21:21;;;;;;;22.85;19.63;;;;;;;10.77;100.00;99929.38;5012630;28;20046;-70
2023/10/31 08:23:49;;;;;;;20.40;18.13;;;;;;;10.80;100.00;99931.84;5021267;28;20045;-70
2023/10/31 08:26:16;;;;;;;20.67;17.23;;;;;;;10.84;100.00;99936.06;5006712;28;20054;-70
2023/10/31 08:28:43;;;;;;;20.55;17.58;;;;;;;10.88;100.00;99938.50;5025345;28;20529;-72
2023/10/31 08:31:10;;;;;;;20.27;16.98;;;;;;;10.93;100.00;99951.47;5025137;28;20100;-70
2023/10/31 08:33:37;;;;;;;20.48;17.40;;;;;;;11.00;100.00;99952.03;5024265;28;20060;-70
2023/10/31 08:36:06;;;;;;;19.95;16.65;;;;;;;11.06;100.00;99950.91;5042393;28;20045;-71
2023/10/31 08:38:33;;;;;;;21.55;16.73;;;;;;;11.09;100.00;99948.97;5044834;28;20055;-70
2023/10/31 08:41:00;;;;;;;18.35;16.35;;;;;;;11.13;100.00;99955.84;5047099;28;20624;-72
2023/10/31 08:43:28;;;;;;;18.73;16.25;;;;;;;11.15;100.00;99964.50;5011417;28;20613;-70
2023/10/31 08:45:55;;;;;;;17.50;15.25;;;;;;;11.16;100.00;99960.94;5017126;28;20057;-70
2023/10/31 08:48:22;;;;;;;17.75;14.38;;;;;;;11.16;100.00;99965.38;5013997;28;20042;-70
2023/10/31 08:50:49;;;;;;;16.90;15.10;;;;;;;11.22;100.00;99961.59;5019736;28;20132;-70
2023/10/31 08:53:16;;;;;;;17.77;14.65;;;;;;;11.27;100.00;99970.13;5026641;28;20117;-70
2023/10/31 08:55:44;;;;;;;16.45;14.32;;;;;;;11.25;100.00;99969.34;5022749;28;20049;-70
2023/10/31 08:58:14;;;;;;;17.05;15.18;;;;;;;11.31;100.00;99974.34;5025146;28;20091;-70
2023/10/31 09:00:41;;;;;;;17.67;15.38;;;;;;;11.35;100.00;99981.19;5027697;28;20457;-70
2023/10/31 09:03:09;;;;;;;18.15;15.60;;;;;;;11.37;100.00;99989.88;5028853;28;20421;-70
2023/10/31 09:05:36;;;;;;;19.50;15.85;;;;;;;11.45;100.00;99987.72;5028683;28;20092;-70
2023/10/31 09:08:05;;;;;;;18.83;16.83;;;;;;;11.46;100.00;99989.44;5048408;28;20099;-70
2023/10/31 09:10:38;;;;;;;19.55;16.35;;;;;;;11.51;100.00;100002.41;5024639;28;20041;-70
2023/10/31 09:13:05;;;;;;;19.13;17.13;;;;;;;11.55;100.00;99995.25;5029217;28;20052;-71
2023/10/31 09:15:32;;;;;;;20.15;17.48;;;;;;;11.50;100.00;99996.31;5025858;28;20037;-71
2023/10/31 09:17:59;;;;;;;19.42;17.02;;;;;;;11.57;100.00;100004.78;5024453;28;20588;-71
2023/10/31 09:20:26;;;;;;;21.50;17.00;;;;;;;11.61;100.00;100010.78;5009091;28;20088;-71
2023/10/31 09:22:53;;;;;;;19.42;16.45;;;;;;;11.69;100.00;100013.88;5019889;28;20141;-71
2023/10/31 09:25:20;;;;;;;20.63;17.85;;;;;;;11.75;100.00;100010.94;5028503;28;20052;-71
2023/10/31 09:27:47;;;;;;;23.10;18.08;;;;;;;11.82;100.00;100019.44;5039842;28;20115;-70
2023/10/31 09:30:14;;;;;;;20.55;16.63;;;;;;;11.85;100.00;100027.22;5021709;28;20148;-71
2023/10/31 09:32:41;;;;;;;21.05;18.40;;;;;;;11.90;100.00;100022.56;5028769;28;20501;-70
2023/10/31 09:35:09;;;;;;;22.35;17.98;;;;;;;12.01;100.00;100016.78;5029456;28;20069;-71
2023/10/31 09:37:36;;;;;;;27.08;18.95;;;;;;;12.08;100.00;100026.09;5027535;28;20041;-71
2023/10/31 09:40:04;;;;;;;22.52;17.95;;;;;;;12.25;100.00;100027.91;5038841;28;20037;-71
2023/10/31 09:42:31;;;;;;;20.58;18.33;;;;;;;12.37;100.00;100029.06;5039259;28;20141;-71
2023/10/31 09:44:58;;;;;;;21.17;18.20;;;;;;;12.35;100.00;100038.03;5018932;28;21098;-71
2023/10/31 09:47:25;;;;;;;24.77;18.13;;;;;;;12.30;100.00;100040.91;5008966;28;20046;-70
2023/10/31 09:49:52;;;;;;;20.67;18.48;;;;;;;12.39;100.00;100047.50;5023332;28;20421;-71
2023/10/31 09:52:20;;;;;;;21.65;17.10;;;;;;;12.43;100.00;100047.28;5007069;28;20073;-71
2023/10/31 09:54:49;;;;;;;22.02;18.20;;;;;;;12.49;100.00;100054.03;5005157;28;20045;-71
2023/10/31 09:57:17;;;;;;;22.75;18.15;;;;;;;12.50;100.00;100057.53;5011041;28;20045;-71
2023/10/31 09:59:45;;;;;;;20.88;15.85;;;;;;;12.45;100.00;100057.78;5022008;28;20132;-71
2023/10/31 10:02:12;;;;;;;21.60;16.85;;;;;;;12.45;100.00;100062.22;5007594;28;20050;-71
2023/10/31 10:04:40;;;;;;;22.48;16.58;;;;;;;12.51;100.00;100067.19;5012477;28;20126;-71
2023/10/31 10:07:07;;;;;;;21.10;16.15;;;;;;;12.52;100.00;100082.09;5038447;28;20041;-70
2023/10/31 10:09:34;;;;;;;20.13;15.65;;;;;;;12.49;100.00;100082.25;5006676;28;20050;-71
2023/10/31 10:12:02;;;;;;;24.13;15.73;;;;;;;12.50;100.00;100091.91;5013109;28;20052;-71
2023/10/31 10:14:31;;;;;;;19.55;14.60;;;;;;;12.50;100.00;100089.25;5020139;28;20034;-71
2023/10/31 10:16:59;;;;;;;19.52;14.43;;;;;;;12.48;100.00;100089.34;5024693;28;20048;-71
2023/10/31 10:19:28;;;;;;;18.85;14.57;;;;;;;12.69;100.00;100086.53;5026364;28;20501;-72
2023/10/31 10:21:59;;;;;;;23.90;15.15;;;;;;;12.74;100.00;100097.72;5028028;28;20060;-71
2023/10/31 10:24:28;;;;;;;25.60;15.73;;;;;;;12.77;100.00;100105.50;5027504;28;20049;-72
2023/10/31 10:26:55;;;;;;;19.25;14.57;;;;;;;12.73;100.00;100111.88;5022908;28;20065;-71
2023/10/31 10:29:23;;;;;;;17.00;13.75;;;;;;;12.63;100.00;100106.22;5027374;28;20124;-72
2023/10/31 10:31:50;;;;;;;20.02;14.48;;;;;;;12.54;100.00;100115.47;5027755;28;20045;-71
2023/10/31 10:34:18;;;;;;;23.17;14.95;;;;;;;12.47;100.00;100107.91;5028368;28;20045;-72
2023/10/31 10:36:52;;;;;;;18.95;13.70;;;;;;;12.38;100.00;100114.53;5036738;28;20045;-71
2023/10/31 10:39:22;;;;;;;18.02;13.38;;;;;;;12.35;100.00;100118.19;5036884;28;20049;-72
2023/10/31 10:41:55;;;;;;;21.90;14.20;;;;;;;12.40;100.00;100123.25;5013044;28;20049;-72
2023/10/31 10:44:33;;;;;;;17.37;12.67;;;;;;;12.38;100.00;100123.28;5007954;28;20129;-71
2023/10/31 10:47:06;;;;;;;18.33;12.93;;;;;;;12.43;100.00;100137.16;5007240;28;20052;-72
2023/10/31 10:49:37;;;;;;;17.25;12.38;;;;;;;12.62;100.00;100132.72;5021910;28;20050;-72
2023/10/31 10:52:28;;;;;;;16.85;12.73;;;;;;;12.70;100.00;100141.16;5007003;28;20053;-71
2023/10/31 10:55:25;;;;;;;24.58;12.95;;;;;;;12.63;100.00;100130.03;5019005;28;20044;-72
2023/10/31 10:58:02;;;;;;;18.35;11.85;;;;;;;12.62;100.00;100143.28;5025001;28;20077;-71
2023/10/31 11:00:29;;;;;;;15.10;12.63;;;;;;;12.71;100.00;100148.16;5027944;28;20171;-71
2023/10/31 11:02:57;;;;;;;16.20;12.88;;;;;;;12.80;100.00;100138.88;5025321;28;20156;-71
2023/10/31 11:05:24;;;;;;;21.50;12.70;;;;;;;12.82;100.00;100145.78;5027060;28;20589;-72
2023/10/31 11:07:53;;;;;;;19.10;12.93;;;;;;;12.81;100.00;100141.47;5061992;28;20098;-72
2023/10/31 11:10:21;;;;;;;16.90;12.68;;;;;;;12.87;100.00;100148.22;5040842;28;20045;-71
2023/10/31 11:12:48;;;;;;;18.30;12.82;;;;;;;13.06;100.00;100142.84;5015798;28;20245;-71
2023/10/31 11:15:18;;;;;;;19.08;13.10;;;;;;;13.20;100.00;100156.22;5041708;28;20051;-71